createdAt,value
2023-01-25T00:00:39.089Z,2.40
2023-01-25T00:04:00.690Z,2.40
2023-01-25T00:07:22.308Z,2.40
2023-01-25T00:10:43.884Z,2.50
2023-01-25T00:14:05.933Z,2.50
2023-01-25T00:17:28.867Z,2.50
2023-01-25T00:20:50.464Z,2.40
2023-01-25T00:24:12.124Z,2.40
2023-01-25T00:27:33.804Z,2.40
2023-01-25T00:30:58.671Z,2.40
2023-01-25T00:34:37.508Z,2.40
2023-01-25T00:38:01.043Z,2.40
2023-01-25T00:41:22.635Z,2.40
2023-01-25T00:44:44.231Z,2.40
2023-01-25T00:48:06.013Z,2.40
2023-01-25T00:51:28.924Z,2.50
2023-01-25T00:54:50.514Z,2.50
2023-01-25T00:58:12.119Z,2.50
2023-01-25T01:01:34.285Z,2.50
2023-01-25T01:04:55.954Z,2.50
2023-01-25T01:08:18.924Z,2.50
2023-01-25T01:11:40.522Z,2.60
2023-01-25T01:15:02.114Z,2.50
2023-01-25T01:18:23.708Z,2.50
2023-01-25T01:21:45.313Z,2.50
2023-01-25T01:25:09.577Z,2.50
2023-01-25T01:28:31.671Z,2.50
2023-01-25T01:31:53.324Z,2.40
2023-01-25T01:35:15.203Z,2.40
2023-01-25T01:38:37.004Z,2.40
2023-01-25T01:41:59.981Z,2.40
2023-01-25T01:45:42.522Z,2.40
2023-01-25T01:49:06.361Z,2.40
2023-01-25T01:52:29.524Z,2.40
2023-01-25T01:55:51.760Z,2.40
2023-01-25T01:59:16.030Z,2.40
2023-01-25T02:02:37.909Z,2.40
2023-01-25T02:06:01.900Z,2.40
2023-01-25T02:09:24.525Z,2.40
2023-01-25T02:12:47.335Z,2.40
2023-01-25T02:16:14.116Z,2.40
2023-01-25T02:19:39.771Z,2.50
2023-01-25T02:23:03.334Z,2.40
2023-01-25T02:26:26.795Z,2.40
2023-01-25T02:29:48.598Z,2.40
2023-01-25T02:33:10.204Z,2.40
2023-01-25T02:36:32.901Z,2.40
2023-01-25T02:39:57.375Z,2.40
2023-01-25T02:43:23.562Z,2.40
2023-01-25T02:46:45.186Z,2.40
2023-01-25T02:50:07.080Z,2.40
2023-01-25T02:53:28.673Z,2.40
2023-01-25T02:56:50.273Z,2.40
2023-01-25T03:00:13.573Z,2.40
2023-01-25T03:03:35.171Z,2.40
2023-01-25T03:06:56.806Z,2.40
2023-01-25T03:10:18.422Z,2.30
2023-01-25T03:13:40.019Z,2.40
2023-01-25T03:17:03.015Z,2.40
2023-01-25T03:20:24.654Z,2.30
2023-01-25T03:23:46.853Z,2.30
2023-01-25T03:27:08.444Z,2.30
2023-01-25T03:30:30.118Z,2.30
2023-01-25T03:33:53.062Z,2.30
2023-01-25T03:37:14.831Z,2.30
2023-01-25T03:40:36.402Z,2.30
2023-01-25T03:43:57.976Z,2.40
2023-01-25T03:47:19.558Z,2.40
2023-01-25T03:50:42.561Z,2.40
2023-01-25T03:54:04.486Z,2.40
2023-01-25T03:57:26.097Z,2.40
2023-01-25T04:00:47.770Z,2.40
2023-01-25T04:04:09.413Z,2.30
2023-01-25T04:07:32.382Z,2.30
2023-01-25T04:10:54.507Z,2.30
2023-01-25T04:14:16.220Z,2.30
2023-01-25T04:17:37.810Z,2.30
2023-01-25T04:20:59.753Z,2.40
2023-01-25T04:24:22.770Z,2.30
2023-01-25T04:27:44.389Z,2.40
2023-01-25T04:31:06.025Z,2.30
2023-01-25T04:34:27.635Z,2.30
2023-01-25T04:37:55.783Z,2.30
2023-01-25T04:41:18.743Z,2.30
2023-01-25T04:44:40.460Z,2.30
2023-01-25T04:48:03.137Z,2.30
2023-01-25T04:51:24.803Z,2.30
2023-01-25T04:54:46.396Z,2.30
2023-01-25T04:58:09.456Z,2.30
2023-01-25T05:01:31.216Z,2.30
2023-01-25T05:04:54.551Z,2.30
2023-01-25T05:08:18.315Z,2.30
2023-01-25T05:11:40.335Z,2.30
2023-01-25T05:15:03.485Z,2.30
2023-01-25T05:18:26.324Z,2.30
2023-01-25T05:21:51.029Z,2.30
2023-01-25T05:25:12.793Z,2.30
2023-01-25T05:28:34.433Z,2.20
2023-01-25T05:31:57.693Z,2.20
2023-01-25T05:35:19.332Z,2.20
2023-01-25T05:38:40.902Z,2.20
2023-01-25T05:42:02.535Z,2.30
2023-01-25T05:45:24.337Z,2.30
2023-01-25T05:48:48.592Z,2.30
2023-01-25T05:52:12.386Z,2.30
2023-01-25T05:55:35.150Z,2.30
2023-01-25T05:58:57.751Z,2.30
2023-01-25T06:02:19.442Z,2.30
2023-01-25T06:05:42.425Z,2.20
2023-01-25T06:09:04.023Z,2.30
2023-01-25T06:12:25.627Z,2.30
2023-01-25T06:15:51.492Z,2.30
2023-01-25T06:19:13.423Z,2.30
2023-01-25T06:22:36.401Z,2.30
2023-01-25T06:25:58.468Z,2.30
2023-01-25T06:29:20.075Z,2.30
2023-01-25T06:32:41.798Z,2.30
2023-01-25T06:36:04.506Z,2.20
2023-01-25T06:39:27.483Z,2.30
2023-01-25T06:42:49.095Z,2.20
2023-01-25T06:46:10.987Z,2.30
2023-01-25T06:49:32.643Z,2.30
2023-01-25T06:52:54.539Z,2.30
2023-01-25T06:56:18.413Z,2.30
2023-01-25T06:59:39.989Z,2.30
2023-01-25T07:03:01.687Z,2.30
2023-01-25T07:06:23.597Z,2.30
2023-01-25T07:09:45.259Z,2.30
2023-01-25T07:13:08.217Z,2.30
2023-01-25T07:16:29.794Z,2.30
2023-01-25T07:19:51.377Z,2.20
2023-01-25T07:23:12.955Z,2.20
2023-01-25T07:26:34.536Z,2.30
2023-01-25T07:29:57.432Z,2.30
2023-01-25T07:33:19.066Z,2.30
2023-01-25T07:36:41.201Z,2.30
2023-01-25T07:40:02.823Z,2.30
2023-01-25T07:43:24.695Z,2.40
2023-01-25T07:46:47.641Z,2.30
2023-01-25T07:50:10.027Z,2.30
2023-01-25T07:53:31.618Z,2.30
2023-01-25T07:56:53.179Z,2.30
2023-01-25T08:00:14.838Z,2.30
2023-01-25T08:03:38.047Z,2.30
2023-01-25T08:06:59.627Z,2.30
2023-01-25T08:10:21.191Z,2.30
2023-01-25T08:13:42.761Z,2.20
2023-01-25T08:17:04.339Z,2.20
2023-01-25T08:20:27.331Z,2.30
2023-01-25T08:23:48.962Z,2.20
2023-01-25T08:27:10.550Z,2.30
2023-01-25T08:30:32.109Z,2.30
2023-01-25T08:33:53.687Z,2.40
2023-01-25T08:37:16.658Z,2.40
2023-01-25T08:40:38.706Z,2.50
2023-01-25T08:44:00.396Z,2.50
2023-01-25T08:47:21.960Z,2.50
2023-01-25T08:50:46.938Z,2.40
2023-01-25T08:54:11.268Z,2.40
2023-01-25T08:57:32.805Z,2.40
2023-01-25T09:00:54.361Z,2.30
2023-01-25T09:04:15.921Z,2.30
2023-01-25T09:07:37.488Z,2.40
2023-01-25T09:11:01.959Z,2.40
2023-01-25T09:14:23.563Z,2.40
2023-01-25T09:17:45.163Z,2.30
2023-01-25T09:21:07.243Z,2.30
2023-01-25T09:24:28.913Z,2.30
2023-01-25T09:27:51.878Z,2.40
2023-01-25T09:31:21.665Z,2.40
2023-01-25T09:34:44.547Z,2.30
2023-01-25T09:38:06.136Z,2.40
2023-01-25T09:41:45.698Z,2.40
2023-01-25T09:45:16.407Z,2.40
2023-01-25T09:48:41.004Z,2.40
2023-01-25T09:52:16.843Z,2.40
2023-01-25T09:55:39.206Z,2.30
2023-01-25T09:59:04.136Z,2.40
2023-01-25T10:02:33.473Z,2.40
2023-01-25T10:05:57.719Z,2.50
2023-01-25T10:09:27.342Z,2.50
2023-01-25T10:12:48.939Z,2.60
2023-01-25T10:16:24.624Z,2.60
2023-01-25T10:19:57.194Z,2.60
2023-01-25T10:23:36.512Z,2.70
2023-01-25T10:27:02.112Z,2.60
2023-01-25T10:30:26.818Z,2.60
2023-01-25T10:33:48.703Z,2.60
2023-01-25T10:37:13.604Z,2.60
2023-01-25T10:40:39.782Z,2.60
2023-01-25T10:44:01.357Z,2.60
2023-01-25T10:47:24.024Z,2.60
2023-01-25T10:50:46.971Z,2.50
2023-01-25T10:54:13.809Z,2.50
2023-01-25T10:57:35.639Z,2.50
2023-01-25T11:00:57.245Z,2.60
2023-01-25T11:04:23.676Z,2.60
2023-01-25T11:07:45.777Z,2.50
2023-01-25T11:11:25.658Z,2.50
2023-01-25T11:14:47.746Z,2.50
2023-01-25T11:18:13.229Z,2.50
2023-01-25T11:21:34.828Z,2.50
2023-01-25T11:24:56.427Z,2.50
2023-01-25T11:28:20.424Z,2.50
2023-01-25T11:31:43.621Z,2.50
2023-01-25T11:35:06.274Z,2.50
2023-01-25T11:38:28.060Z,2.60
2023-01-25T11:41:55.363Z,2.60
2023-01-25T11:45:32.123Z,2.80
2023-01-25T11:49:08.497Z,2.80
2023-01-25T11:52:35.362Z,2.70
2023-01-25T11:56:02.000Z,2.60
2023-01-25T11:59:29.246Z,2.60
2023-01-25T12:03:12.175Z,2.60
2023-01-25T12:06:38.077Z,2.60
2023-01-25T12:10:04.091Z,2.60
2023-01-25T12:13:30.007Z,2.50
2023-01-25T12:16:57.744Z,2.50
2023-01-25T12:20:36.975Z,2.40
2023-01-25T12:24:11.608Z,2.50
2023-01-25T12:27:37.136Z,2.50
2023-01-25T12:31:01.506Z,2.50
2023-01-25T12:34:26.394Z,2.50
2023-01-25T12:37:49.197Z,2.50
2023-01-25T12:41:19.971Z,2.60
2023-01-25T12:44:43.502Z,2.60
2023-01-25T12:48:13.490Z,2.50
2023-01-25T12:51:37.335Z,2.60
2023-01-25T12:55:01.047Z,2.60
2023-01-25T12:58:37.499Z,2.60
2023-01-25T13:02:07.465Z,2.50
2023-01-25T13:05:31.591Z,2.50
2023-01-25T13:08:56.834Z,2.40
2023-01-25T13:12:18.631Z,2.40
2023-01-25T13:15:42.454Z,2.50
2023-01-25T13:19:04.070Z,2.50
2023-01-25T13:22:44.713Z,2.60
2023-01-25T13:26:25.032Z,2.60
2023-01-25T13:29:47.043Z,2.70
2023-01-25T13:33:10.752Z,2.70
2023-01-25T13:36:45.319Z,2.70
2023-01-25T13:40:27.763Z,2.60
2023-01-25T13:43:54.500Z,2.50
2023-01-25T13:47:17.840Z,2.40
2023-01-25T13:50:44.343Z,2.50
2023-01-25T13:54:06.358Z,2.60
2023-01-25T13:57:29.292Z,2.60
2023-01-25T14:00:53.131Z,2.50
2023-01-25T14:04:15.093Z,2.40
2023-01-25T14:07:39.780Z,2.40
2023-01-25T14:11:01.776Z,2.30
2023-01-25T14:14:25.763Z,2.30
2023-01-25T14:18:03.971Z,2.30
2023-01-25T14:21:26.221Z,2.20
2023-01-25T14:25:03.335Z,2.20
2023-01-25T14:28:25.411Z,2.30
2023-01-25T14:31:48.776Z,2.20
2023-01-25T14:35:42.224Z,2.20
2023-01-25T14:39:13.409Z,2.20
2023-01-25T14:42:36.417Z,2.20
2023-01-25T14:45:58.249Z,2.10
2023-01-25T14:49:20.620Z,2.10
2023-01-25T14:52:42.292Z,2.10
2023-01-25T14:56:04.012Z,2.10
2023-01-25T14:59:32.182Z,2.10
2023-01-25T15:02:55.315Z,2.20
2023-01-25T15:06:16.980Z,2.20
2023-01-25T15:09:39.590Z,2.20
2023-01-25T15:13:12.901Z,2.20
2023-01-25T15:16:36.513Z,2.20
2023-01-25T15:19:58.143Z,2.20
2023-01-25T15:23:21.920Z,2.20
2023-01-25T15:26:48.624Z,2.20
2023-01-25T15:30:12.092Z,2.00
2023-01-25T15:33:35.058Z,2.00
2023-01-25T15:36:56.651Z,2.00
2023-01-25T15:40:18.325Z,2.10
2023-01-25T15:43:40.227Z,2.10
2023-01-25T15:47:01.862Z,2.10
2023-01-25T15:50:24.838Z,2.10
2023-01-25T15:53:46.462Z,2.10
2023-01-25T15:57:16.104Z,2.20
2023-01-25T16:00:37.704Z,2.20
2023-01-25T16:03:59.838Z,2.10
2023-01-25T16:07:23.861Z,2.10
2023-01-25T16:10:45.535Z,2.00
2023-01-25T16:14:07.181Z,2.00
2023-01-25T16:17:28.859Z,2.00
2023-01-25T16:20:50.488Z,2.00
2023-01-25T16:24:14.744Z,2.10
2023-01-25T16:27:36.373Z,2.10
2023-01-25T16:30:58.069Z,2.10
2023-01-25T16:34:20.292Z,2.10
2023-01-25T16:37:42.038Z,2.10
2023-01-25T16:41:06.682Z,2.10
2023-01-25T16:44:32.797Z,2.10
2023-01-25T16:47:54.874Z,2.10
2023-01-25T16:51:19.113Z,2.10
2023-01-25T16:54:42.175Z,2.10
2023-01-25T16:58:05.371Z,2.00
2023-01-25T17:01:27.161Z,2.00
2023-01-25T17:04:48.825Z,1.90
2023-01-25T17:08:10.464Z,1.80
2023-01-25T17:11:34.771Z,1.90
2023-01-25T17:14:57.802Z,1.80
2023-01-25T17:18:19.400Z,1.90
2023-01-25T17:21:41.037Z,1.90
2023-01-25T17:25:03.027Z,1.90
2023-01-25T17:28:26.141Z,2.00
2023-01-25T17:31:49.362Z,2.00
2023-01-25T17:35:11.070Z,2.00
2023-01-25T17:38:33.172Z,2.00
2023-01-25T17:41:54.899Z,1.90
2023-01-25T17:45:16.647Z,2.00
2023-01-25T17:48:39.771Z,1.90
2023-01-25T17:52:01.419Z,1.90
2023-01-25T17:55:23.013Z,1.90
2023-01-25T17:58:44.920Z,1.90
2023-01-25T18:02:06.559Z,1.90
2023-01-25T18:05:29.931Z,1.90
2023-01-25T18:08:52.970Z,1.90
2023-01-25T18:12:16.354Z,1.90
2023-01-25T18:15:38.159Z,1.90
2023-01-25T18:19:00.655Z,2.00
2023-01-25T18:22:23.636Z,2.00
2023-01-25T18:25:45.259Z,2.00
2023-01-25T18:29:30.683Z,1.90
2023-01-25T18:32:52.344Z,1.90
2023-01-25T18:36:14.404Z,1.90
2023-01-25T18:39:37.502Z,1.90
2023-01-25T18:42:59.465Z,1.90
2023-01-25T18:46:21.300Z,1.80
2023-01-25T18:49:42.967Z,1.90
2023-01-25T18:53:04.566Z,1.90
2023-01-25T18:56:27.619Z,1.90
2023-01-25T18:59:49.315Z,1.90
2023-01-25T19:03:10.947Z,1.90
2023-01-25T19:06:32.756Z,1.90
2023-01-25T19:09:54.781Z,1.90
2023-01-25T19:13:17.947Z,1.90
2023-01-25T19:16:39.690Z,1.90
2023-01-25T19:20:01.456Z,1.90
2023-01-25T19:23:23.016Z,1.90
2023-01-25T19:26:45.007Z,1.90
2023-01-25T19:30:08.889Z,1.90
2023-01-25T19:33:30.490Z,1.90
2023-01-25T19:36:52.079Z,1.90
2023-01-25T19:40:13.689Z,1.90
2023-01-25T19:43:35.447Z,1.80
2023-01-25T19:46:58.434Z,1.80
2023-01-25T19:50:20.050Z,1.80
2023-01-25T19:53:42.518Z,1.70
2023-01-25T19:57:04.175Z,1.70
2023-01-25T20:00:25.800Z,1.70
2023-01-25T20:03:48.965Z,1.70
2023-01-25T20:07:10.566Z,1.70
2023-01-25T20:10:34.020Z,1.70
2023-01-25T20:13:56.654Z,1.70
2023-01-25T20:17:18.258Z,1.70
2023-01-25T20:20:41.210Z,1.70
2023-01-25T20:24:04.631Z,1.60
2023-01-25T20:27:26.389Z,1.60
2023-01-25T20:30:48.066Z,1.60
2023-01-25T20:34:10.979Z,1.70
2023-01-25T20:37:34.241Z,1.60
2023-01-25T20:40:58.058Z,1.60
2023-01-25T20:44:19.844Z,1.50
2023-01-25T20:47:41.479Z,1.40
2023-01-25T20:51:03.723Z,1.40
2023-01-25T20:54:26.781Z,1.40
2023-01-25T20:57:48.437Z,1.40
2023-01-25T21:01:13.664Z,1.40
2023-01-25T21:04:35.251Z,1.40
2023-01-25T21:07:56.840Z,1.40
2023-01-25T21:11:19.862Z,1.30
2023-01-25T21:14:41.472Z,1.30
2023-01-25T21:18:03.278Z,1.30
2023-01-25T21:21:25.711Z,1.30
2023-01-25T21:24:47.322Z,1.30
2023-01-25T21:28:10.317Z,1.30
2023-01-25T21:31:33.142Z,1.30
2023-01-25T21:34:54.777Z,1.30
2023-01-25T21:38:18.538Z,1.30
2023-01-25T21:41:40.154Z,1.30
2023-01-25T21:45:03.627Z,1.30
2023-01-25T21:48:25.226Z,1.30
2023-01-25T21:51:47.741Z,1.30
2023-01-25T21:55:09.858Z,1.30
2023-01-25T21:58:31.630Z,1.30
2023-01-25T22:01:55.431Z,1.20
2023-01-25T22:05:18.371Z,1.20
2023-01-25T22:08:40.316Z,1.10
2023-01-25T22:12:01.935Z,1.20
2023-01-25T22:15:23.800Z,1.20
2023-01-25T22:18:47.113Z,1.10
2023-01-25T22:22:08.746Z,1.10
2023-01-25T22:25:30.331Z,1.20
2023-01-25T22:28:52.775Z,1.20
2023-01-25T22:32:14.396Z,1.20
2023-01-25T22:35:37.470Z,1.20
2023-01-25T22:38:59.135Z,1.10
2023-01-25T22:42:20.713Z,1.10
2023-01-25T22:45:48.847Z,1.10
2023-01-25T22:49:10.472Z,1.20
2023-01-25T22:52:33.417Z,1.10
2023-01-25T22:56:04.986Z,1.10
2023-01-25T22:59:26.566Z,1.10
2023-01-25T23:02:48.143Z,1.10
2023-01-25T23:06:12.096Z,1.20
2023-01-25T23:09:35.079Z,1.20
2023-01-25T23:12:56.686Z,1.10
2023-01-25T23:16:18.322Z,1.20
2023-01-25T23:19:39.964Z,1.20
2023-01-25T23:23:01.635Z,1.20
2023-01-25T23:26:24.583Z,1.20
2023-01-25T23:29:46.173Z,1.10
2023-01-25T23:33:07.755Z,1.10
2023-01-25T23:36:29.993Z,1.10
2023-01-25T23:39:51.677Z,1.20
2023-01-25T23:43:14.609Z,1.10
2023-01-25T23:46:36.462Z,1.20
2023-01-25T23:49:58.231Z,1.20
2023-01-25T23:53:20.297Z,1.10
2023-01-25T23:56:41.890Z,1.10
